Terminal Aerodrome Forecast
Issued by NWS Wilmington, NC

Home | Current Version | Previous Version | Text Only | Print | Product List | Glossary On
Versions: 1 2 3 4 5 6 7 8 9 10 11 12 13 14 15 16 17
000
FTUS42 KILM 302300
TAFLBT
TAF
KLBT 302321Z 3100/3124 16004KT P6SM SCT100
     FM310600 00000KT 4SM BR FEW006 BKN015
      TEMPO 3109/3113 2SM BR BKN006
     FM311500 19005KT P6SM FEW020 SCT050=

USA.gov is the U.S. government's official web portal to all federal, state and local government web resources and services.